createdAt,value
2022-10-19T00:00:13.448Z,102409.88
2022-10-19T00:01:18.624Z,102414.34
2022-10-19T00:02:23.001Z,102416.13
2022-10-19T00:03:24.575Z,102413.56
2022-10-19T00:04:27.149Z,102407.38
2022-10-19T00:05:28.653Z,102411.84
2022-10-19T00:06:33.164Z,102412.78
2022-10-19T00:07:35.036Z,102411.00
2022-10-19T00:08:37.915Z,102410.13
2022-10-19T00:09:40.521Z,102406.63
2022-10-19T00:10:42.082Z,102409.28
2022-10-19T00:11:46.656Z,102411.94
2022-10-19T00:13:57.024Z,102407.66
2022-10-19T00:15:00.032Z,102413.91
2022-10-19T00:16:02.552Z,102407.66
2022-10-19T00:17:04.068Z,102405.94
2022-10-19T00:18:06.667Z,102411.25
2022-10-19T00:19:12.767Z,102398.91
2022-10-19T00:20:22.364Z,102404.22
2022-10-19T00:21:24.861Z,102402.53
2022-10-19T00:22:26.421Z,102398.13
2022-10-19T00:23:28.958Z,102400.91
2022-10-19T00:24:32.896Z,102405.34
2022-10-19T00:25:36.831Z,102399.19
2022-10-19T00:26:38.781Z,102400.22
2022-10-19T00:27:41.253Z,102399.25
2022-10-19T00:28:43.484Z,102398.56
2022-10-19T00:29:46.008Z,102392.44
2022-10-19T00:31:56.328Z,102393.44
2022-10-19T00:32:57.853Z,102396.19
2022-10-19T00:34:01.116Z,102397.06
2022-10-19T00:35:03.636Z,102390.03
2022-10-19T00:36:07.646Z,102395.34
2022-10-19T00:37:09.128Z,102400.66
2022-10-19T00:38:11.649Z,102400.72
2022-10-19T00:39:15.458Z,102401.69
2022-10-19T00:40:18.016Z,102403.38
2022-10-19T00:41:22.126Z,102396.44
2022-10-19T00:42:24.599Z,102399.97
2022-10-19T00:43:30.619Z,102401.88
2022-10-19T00:44:59.990Z,102397.41
2022-10-19T00:46:03.810Z,102401.88
2022-10-19T00:47:08.357Z,102402.88
2022-10-19T00:48:13.372Z,102397.66
2022-10-19T00:49:17.861Z,102403.03
2022-10-19T00:50:20.683Z,102403.16
2022-10-19T00:51:23.026Z,102398.75
2022-10-19T00:52:26.888Z,102401.41
2022-10-19T00:53:30.701Z,102398.75
2022-10-19T00:54:34.199Z,102397.03
2022-10-19T00:55:37.535Z,102397.03
2022-10-19T00:56:43.320Z,102397.03
2022-10-19T00:57:46.085Z,102398.88
2022-10-19T00:58:47.940Z,102387.44
2022-10-19T00:59:51.250Z,102391.91
2022-10-19T01:00:53.046Z,102391.06
2022-10-19T01:01:57.025Z,102384.91
2022-10-19T01:02:58.908Z,102382.31
2022-10-19T01:04:02.069Z,102388.50
2022-10-19T01:05:04.775Z,102385.84
2022-10-19T01:06:07.428Z,102383.25
2022-10-19T01:07:09.361Z,102387.63
2022-10-19T01:08:12.700Z,102386.00
2022-10-19T01:09:14.620Z,102384.22
2022-10-19T01:10:17.451Z,102395.69
2022-10-19T01:11:30.983Z,102391.31
2022-10-19T01:12:57.674Z,102392.25
2022-10-19T01:14:14.294Z,102392.25
2022-10-19T01:15:25.755Z,102379.94
2022-10-19T01:16:38.704Z,102375.56
2022-10-19T01:17:55.790Z,102380.91
2022-10-19T01:19:04.117Z,102381.78
2022-10-19T01:20:42.637Z,102381.78
2022-10-19T01:21:49.741Z,102385.34
2022-10-19T01:23:26.182Z,102380.22
2022-10-19T01:24:48.990Z,102387.34
2022-10-19T01:25:55.637Z,102383.91
2022-10-19T01:27:19.179Z,102384.84
2022-10-19T01:28:39.747Z,102388.47
2022-10-19T01:29:56.949Z,102391.19
2022-10-19T01:31:05.441Z,102378.88
2022-10-19T01:32:11.400Z,102382.47
2022-10-19T01:33:28.517Z,102377.22
2022-10-19T01:34:34.397Z,102381.66
2022-10-19T01:35:45.336Z,102381.66
2022-10-19T01:36:58.211Z,102381.66
2022-10-19T01:38:07.513Z,102381.78
2022-10-19T01:39:14.312Z,102384.44
2022-10-19T01:40:24.639Z,102380.91
2022-10-19T01:41:32.269Z,102383.56
2022-10-19T01:42:40.128Z,102380.06
2022-10-19T01:43:46.167Z,102383.66
2022-10-19T01:44:54.338Z,102376.53
2022-10-19T01:46:02.768Z,102376.63
2022-10-19T01:47:10.991Z,102372.19
2022-10-19T01:48:15.945Z,102367.06
2022-10-19T01:49:23.586Z,102372.34
2022-10-19T01:50:30.372Z,102371.56
2022-10-19T01:51:36.587Z,102368.91
2022-10-19T01:52:40.828Z,102366.44
2022-10-19T01:53:48.551Z,102360.19
2022-10-19T01:54:53.666Z,102363.78
2022-10-19T01:55:57.586Z,102357.72
2022-10-19T01:57:02.808Z,102360.38
2022-10-19T01:58:09.710Z,102358.63
2022-10-19T01:59:12.886Z,102350.78
2022-10-19T02:00:18.456Z,102360.59
2022-10-19T02:01:23.966Z,102352.63
2022-10-19T02:02:28.905Z,102353.66
2022-10-19T02:03:31.638Z,102357.25
2022-10-19T02:04:36.629Z,102350.25
2022-10-19T02:05:39.760Z,102353.84
2022-10-19T02:06:42.555Z,102355.69
2022-10-19T02:07:48.473Z,102347.84
2022-10-19T02:08:53.183Z,102361.97
2022-10-19T02:09:55.992Z,102361.00
2022-10-19T02:11:00.171Z,102358.47
2022-10-19T02:12:04.788Z,102357.59
2022-10-19T02:13:08.820Z,102358.53
2022-10-19T02:14:15.177Z,102355.88
2022-10-19T02:15:22.316Z,102358.63
2022-10-19T02:16:27.865Z,102355.19
2022-10-19T02:17:36.370Z,102356.03
2022-10-19T02:18:44.780Z,102358.81
2022-10-19T02:19:47.443Z,102352.63
2022-10-19T02:20:49.167Z,102350.03
2022-10-19T02:21:52.846Z,102348.34
2022-10-19T02:22:54.619Z,102347.50
2022-10-19T02:23:57.122Z,102351.94
2022-10-19T02:24:58.786Z,102351.06
2022-10-19T02:26:01.390Z,102348.41
2022-10-19T02:27:05.486Z,102355.53
2022-10-19T02:28:08.003Z,102351.06
2022-10-19T02:29:11.465Z,102347.56
2022-10-19T02:30:17.919Z,102350.31
2022-10-19T02:31:21.187Z,102349.53
2022-10-19T02:32:23.792Z,102346.03
2022-10-19T02:33:27.128Z,102348.69
2022-10-19T02:34:30.545Z,102348.69
2022-10-19T02:35:32.183Z,102341.66
2022-10-19T02:36:34.765Z,102346.09
2022-10-19T02:38:43.847Z,102340.78
2022-10-19T02:39:45.481Z,102331.97
2022-10-19T02:40:52.977Z,102333.75
2022-10-19T02:42:01.730Z,102332.06
2022-10-19T02:43:08.756Z,102332.06
2022-10-19T02:44:17.128Z,102328.56
2022-10-19T02:45:25.169Z,102331.22
2022-10-19T02:46:36.372Z,102327.69
2022-10-19T02:47:42.814Z,102312.72
2022-10-19T02:48:45.956Z,102324.28
2022-10-19T02:49:49.643Z,102325.13
2022-10-19T02:50:51.971Z,102330.53
2022-10-19T02:52:01.351Z,102324.34
2022-10-19T02:53:03.410Z,102332.31
2022-10-19T02:54:08.263Z,102324.34
2022-10-19T02:55:10.195Z,102326.16
2022-10-19T02:56:12.692Z,102327.09
2022-10-19T02:57:17.689Z,102324.47
2022-10-19T02:58:20.142Z,102319.16
2022-10-19T02:59:22.205Z,102320.94
2022-10-19T03:00:24.735Z,102320.94
2022-10-19T03:01:28.895Z,102313.84
2022-10-19T03:02:33.043Z,102316.56
2022-10-19T03:03:34.615Z,102319.22
2022-10-19T03:04:37.183Z,102315.69
2022-10-19T03:05:38.761Z,102311.31
2022-10-19T03:06:41.319Z,102313.22
2022-10-19T03:07:43.306Z,102310.56
2022-10-19T03:08:46.126Z,102308.00
2022-10-19T03:09:47.823Z,102308.94
2022-10-19T03:10:50.290Z,102309.81
2022-10-19T03:11:51.835Z,102306.34
2022-10-19T03:12:54.342Z,102312.53
2022-10-19T03:13:55.911Z,102309.97
2022-10-19T03:14:58.390Z,102309.97
2022-10-19T03:16:06.575Z,102315.28
2022-10-19T03:17:09.298Z,102311.75
2022-10-19T03:18:12.173Z,102309.13
2022-10-19T03:19:14.660Z,102318.84
2022-10-19T03:20:16.203Z,102311.84
2022-10-19T03:21:19.859Z,102310.16
2022-10-19T03:22:21.405Z,102315.44
2022-10-19T03:23:23.904Z,102314.59
2022-10-19T03:24:25.477Z,102311.13
2022-10-19T03:25:28.008Z,102317.41
2022-10-19T03:26:29.502Z,102312.16
2022-10-19T03:27:32.322Z,102306.97
2022-10-19T03:28:34.267Z,102320.22
2022-10-19T03:29:36.782Z,102321.16
2022-10-19T03:30:38.299Z,102311.47
2022-10-19T03:31:40.870Z,102313.25
2022-10-19T03:32:43.082Z,102315.16
2022-10-19T03:33:46.934Z,102311.63
2022-10-19T03:34:48.446Z,102311.63
2022-10-19T03:35:51.025Z,102322.25
2022-10-19T03:36:53.505Z,102320.53
2022-10-19T03:37:55.021Z,102317.03
2022-10-19T03:38:59.806Z,102317.09
2022-10-19T03:40:01.439Z,102319.75
2022-10-19T03:41:06.572Z,102319.75
2022-10-19T03:42:09.062Z,102321.47
2022-10-19T03:43:10.728Z,102324.13
2022-10-19T03:44:13.251Z,102314.53
2022-10-19T03:45:14.884Z,102314.53
2022-10-19T03:46:17.999Z,102319.00
2022-10-19T03:47:19.592Z,102326.94
2022-10-19T03:48:22.101Z,102324.38
2022-10-19T03:49:25.003Z,102325.28
2022-10-19T03:50:27.565Z,102327.00
2022-10-19T03:51:30.796Z,102332.41
2022-10-19T03:52:33.511Z,102334.22
2022-10-19T03:53:36.082Z,102328.09
2022-10-19T03:54:38.842Z,102330.75
2022-10-19T03:55:40.396Z,102335.19
2022-10-19T03:56:43.629Z,102343.09
2022-10-19T03:57:45.115Z,102337.78
2022-10-19T03:58:49.281Z,102335.19
2022-10-19T03:59:50.868Z,102341.38
2022-10-19T04:00:53.895Z,102336.06
2022-10-19T04:01:55.443Z,102336.06
2022-10-19T04:02:57.963Z,102341.38
2022-10-19T04:04:01.302Z,102336.06
2022-10-19T04:05:06.028Z,102339.66
2022-10-19T04:06:10.060Z,102334.38
2022-10-19T04:07:12.577Z,102336.16
2022-10-19T04:08:14.201Z,102331.78
2022-10-19T04:09:18.726Z,102335.31
2022-10-19T04:10:20.231Z,102331.88
2022-10-19T04:11:25.076Z,102339.84
2022-10-19T04:12:26.665Z,102329.22
2022-10-19T04:13:29.765Z,102331.94
2022-10-19T04:14:39.258Z,102331.25
2022-10-19T04:15:47.286Z,102329.53
2022-10-19T04:16:49.891Z,102331.41
2022-10-19T04:17:51.439Z,102326.09
2022-10-19T04:18:55.201Z,102332.34
2022-10-19T04:19:56.760Z,102335.84
2022-10-19T04:21:02.302Z,102337.63
2022-10-19T04:22:03.829Z,102335.84
2022-10-19T04:23:06.415Z,102339.44
2022-10-19T04:24:10.141Z,102335.84
2022-10-19T04:25:12.965Z,102333.28
2022-10-19T04:26:14.665Z,102334.13
2022-10-19T04:27:17.137Z,102329.69
2022-10-19T04:28:18.740Z,102342.19
2022-10-19T04:29:26.275Z,102333.34
2022-10-19T04:30:31.436Z,102340.38
2022-10-19T04:31:35.312Z,102341.31
2022-10-19T04:32:37.955Z,102336.00
2022-10-19T04:33:39.958Z,102338.81
2022-10-19T04:34:42.507Z,102337.03
2022-10-19T04:35:44.002Z,102340.63
2022-10-19T04:36:47.848Z,102338.88
2022-10-19T04:37:49.333Z,102342.50
2022-10-19T04:38:51.874Z,102336.34
2022-10-19T04:39:54.342Z,102343.41
2022-10-19T04:40:56.060Z,102342.50
2022-10-19T04:41:58.543Z,102332.81
2022-10-19T04:43:00.355Z,102338.97
2022-10-19T04:44:04.383Z,102335.47
2022-10-19T04:45:06.412Z,102327.53
2022-10-19T04:46:11.981Z,102323.16
2022-10-19T04:47:14.754Z,102330.16
2022-10-19T04:48:17.209Z,102333.75
2022-10-19T04:49:20.414Z,102336.41
2022-10-19T04:50:22.124Z,102333.75
2022-10-19T04:51:25.489Z,102325.91
2022-10-19T04:52:28.421Z,102319.72
2022-10-19T04:53:31.222Z,102330.34
2022-10-19T04:54:32.785Z,102325.03
2022-10-19T04:55:35.273Z,102319.72
2022-10-19T04:56:36.811Z,102319.72
2022-10-19T04:57:39.354Z,102325.03
2022-10-19T04:58:41.510Z,102325.03
2022-10-19T04:59:44.042Z,102322.38
2022-10-19T05:00:45.653Z,102320.66
2022-10-19T05:01:48.339Z,102325.03
2022-10-19T05:02:49.829Z,102323.31
2022-10-19T05:05:02.192Z,102311.84
2022-10-19T05:06:05.013Z,102310.16
2022-10-19T05:07:06.682Z,102316.31
2022-10-19T05:08:11.778Z,102314.59
2022-10-19T05:09:14.362Z,102309.28
2022-10-19T05:10:16.047Z,102313.66
2022-10-19T05:11:19.261Z,102314.59
2022-10-19T05:12:20.791Z,102313.72
2022-10-19T05:13:23.393Z,102311.19
2022-10-19T05:14:25.076Z,102315.63
2022-10-19T05:15:28.314Z,102321.78
2022-10-19T05:16:29.814Z,102314.75
2022-10-19T05:17:33.213Z,102317.41
2022-10-19T05:18:36.120Z,102311.25
2022-10-19T05:19:37.641Z,102312.16
2022-10-19T05:20:40.181Z,102314.81
2022-10-19T05:21:42.675Z,102310.47
2022-10-19T05:22:44.226Z,102311.34
2022-10-19T05:23:48.369Z,102309.59
2022-10-19T05:24:53.272Z,102310.53
2022-10-19T05:26:06.660Z,102311.41
2022-10-19T05:27:09.119Z,102301.66
2022-10-19T05:28:10.742Z,102306.97
2022-10-19T05:29:15.229Z,102307.88
2022-10-19T05:30:17.041Z,102311.41
2022-10-19T05:31:21.265Z,102308.81
2022-10-19T05:32:23.784Z,102313.19
2022-10-19T05:33:25.339Z,102308.81
2022-10-19T05:34:27.808Z,102311.47
2022-10-19T05:35:29.353Z,102307.88
2022-10-19T05:36:35.033Z,102316.75
2022-10-19T05:37:36.939Z,102310.53
2022-10-19T05:38:39.998Z,102299.94
2022-10-19T05:39:43.993Z,102309.69
2022-10-19T05:40:49.194Z,102303.50
2022-10-19T05:41:53.935Z,102300.03
2022-10-19T05:42:55.480Z,102303.50
2022-10-19T05:44:01.315Z,102289.44
2022-10-19T05:45:07.295Z,102299.06
2022-10-19T05:46:11.286Z,102300.88
2022-10-19T05:47:13.996Z,102303.50
2022-10-19T05:48:15.605Z,102311.47
2022-10-19T05:49:21.720Z,102311.47
2022-10-19T05:50:23.265Z,102308.81
2022-10-19T05:51:27.002Z,102306.16
2022-10-19T05:52:28.705Z,102304.38
2022-10-19T05:53:31.397Z,102312.31
2022-10-19T05:54:33.024Z,102300.88
2022-10-19T05:55:37.094Z,102306.16
2022-10-19T05:56:40.713Z,102296.44
2022-10-19T05:57:42.641Z,102301.72
2022-10-19T05:58:45.666Z,102305.34
2022-10-19T05:59:47.235Z,102311.47
2022-10-19T06:00:54.793Z,102307.97
2022-10-19T06:01:57.372Z,102300.09
2022-10-19T06:02:59.304Z,102302.75
2022-10-19T06:04:04.140Z,102300.19
2022-10-19T06:05:07.047Z,102301.88
2022-10-19T06:06:10.510Z,102305.41
2022-10-19T06:07:13.363Z,102298.38
2022-10-19T06:08:15.653Z,102295.72
2022-10-19T06:09:18.399Z,102301.03
2022-10-19T06:10:21.129Z,102298.47
2022-10-19T06:11:27.225Z,102299.34
2022-10-19T06:12:28.880Z,102293.22
2022-10-19T06:13:31.589Z,102296.75
2022-10-19T06:14:35.169Z,102292.38
2022-10-19T06:15:40.095Z,102291.53
2022-10-19T06:16:43.065Z,102294.19
2022-10-19T06:17:44.624Z,102287.22
2022-10-19T06:18:49.387Z,102296.03
2022-10-19T06:19:50.988Z,102290.75
2022-10-19T06:20:54.039Z,102289.88
2022-10-19T06:21:56.516Z,102296.03
2022-10-19T06:22:58.009Z,102295.19
2022-10-19T06:24:02.693Z,102298.69
2022-10-19T06:25:05.126Z,102294.19
2022-10-19T06:26:11.200Z,102297.75
2022-10-19T06:27:15.327Z,102307.44
2022-10-19T06:28:17.104Z,102306.56
2022-10-19T06:29:19.654Z,102303.06
2022-10-19T06:30:21.338Z,102306.56
2022-10-19T06:31:23.846Z,102309.22
2022-10-19T06:32:26.347Z,102312.75
2022-10-19T06:33:28.657Z,102311.88
2022-10-19T06:34:31.220Z,102309.13
2022-10-19T06:35:32.904Z,102310.91
2022-10-19T06:36:35.647Z,102310.84
2022-10-19T06:37:37.213Z,102309.94
2022-10-19T06:38:39.877Z,102315.22
2022-10-19T06:39:42.618Z,102315.22
2022-10-19T06:40:44.387Z,102311.72
2022-10-19T06:41:47.054Z,102316.91
2022-10-19T06:42:50.043Z,102316.09
2022-10-19T06:43:53.229Z,102311.63
2022-10-19T06:44:54.889Z,102309.84
2022-10-19T06:45:57.511Z,102312.41
2022-10-19T06:46:59.097Z,102315.94
2022-10-19T06:48:05.019Z,102315.94
2022-10-19T06:49:14.096Z,102307.88
2022-10-19T06:50:15.753Z,102313.97
2022-10-19T06:51:18.404Z,102306.03
2022-10-19T06:52:19.997Z,102307.72
2022-10-19T06:53:22.516Z,102307.72
2022-10-19T06:54:25.546Z,102304.16
2022-10-19T06:55:27.146Z,102296.09
2022-10-19T06:56:29.732Z,102300.56
2022-10-19T06:57:31.886Z,102291.66
2022-10-19T06:58:38.205Z,102292.53
2022-10-19T06:59:40.039Z,102298.59
2022-10-19T07:00:42.752Z,102293.22
2022-10-19T07:01:44.501Z,102296.63
2022-10-19T07:02:47.108Z,102290.50
2022-10-19T07:03:50.786Z,102290.34
2022-10-19T07:04:54.447Z,102289.31
2022-10-19T07:05:57.913Z,102293.53
2022-10-19T07:07:00.384Z,102292.56
2022-10-19T07:08:01.969Z,102290.72
2022-10-19T07:09:05.047Z,102283.63
2022-10-19T07:10:07.024Z,102289.69
2022-10-19T07:11:12.042Z,102287.03
2022-10-19T07:12:13.627Z,102294.84
2022-10-19T07:13:16.175Z,102297.41
2022-10-19T07:14:19.049Z,102294.66
2022-10-19T07:15:23.114Z,102294.66
2022-10-19T07:16:25.589Z,102298.09
2022-10-19T07:17:27.092Z,102298.94
2022-10-19T07:18:29.934Z,102305.09
2022-10-19T07:19:32.718Z,102302.38
2022-10-19T07:20:35.607Z,102304.06
2022-10-19T07:21:41.546Z,102307.53
2022-10-19T07:22:43.083Z,102309.22
2022-10-19T07:23:47.147Z,102316.25
2022-10-19T07:24:48.769Z,102312.56
2022-10-19T07:25:52.779Z,102316.94
2022-10-19T07:26:55.279Z,102317.69
2022-10-19T07:27:56.820Z,102315.91
2022-10-19T07:28:59.339Z,102319.34
2022-10-19T07:30:02.288Z,102313.88
2022-10-19T07:31:09.493Z,102318.22
2022-10-19T07:32:11.965Z,102316.44
2022-10-19T07:33:13.627Z,102320.75
2022-10-19T07:34:16.423Z,102322.44
2022-10-19T07:35:18.961Z,102324.16
2022-10-19T07:36:20.628Z,102318.69
2022-10-19T07:37:23.159Z,102326.59
2022-10-19T07:38:24.672Z,102329.13
2022-10-19T07:39:28.030Z,102327.25
2022-10-19T07:40:30.522Z,102328.97
2022-10-19T07:41:34.593Z,102330.59
2022-10-19T07:42:37.623Z,102331.38
2022-10-19T07:43:40.934Z,102326.94
2022-10-19T07:44:43.752Z,102328.63
2022-10-19T07:45:46.625Z,102327.69
2022-10-19T07:46:49.147Z,102328.47
2022-10-19T07:47:50.702Z,102321.28
2022-10-19T07:48:53.559Z,102316.00
2022-10-19T07:49:56.077Z,102316.75
2022-10-19T07:50:57.665Z,102311.44
2022-10-19T07:52:00.177Z,102309.59
2022-10-19T07:53:05.143Z,102313.00
2022-10-19T07:54:08.124Z,102306.66
2022-10-19T07:55:09.836Z,102304.88
2022-10-19T07:56:13.866Z,102295.97
2022-10-19T07:57:16.529Z,102311.72
2022-10-19T07:58:18.097Z,102309.81
2022-10-19T07:59:20.775Z,102317.72
2022-10-19T08:00:22.353Z,102311.38
2022-10-19T08:01:29.957Z,102304.16
2022-10-19T08:02:39.650Z,102314.63
2022-10-19T08:05:18.100Z,102317.09
2022-10-19T08:06:21.365Z,102313.50
2022-10-19T08:07:23.879Z,102315.13
2022-10-19T08:08:26.936Z,102312.41
2022-10-19T08:10:51.962Z,102310.44
2022-10-19T08:11:54.531Z,102312.06
2022-10-19T08:12:56.059Z,102312.81
2022-10-19T08:13:59.412Z,102310.94
2022-10-19T08:15:00.972Z,102315.28
2022-10-19T08:16:04.123Z,102310.66
2022-10-19T08:17:07.187Z,102308.81
2022-10-19T08:18:09.955Z,102302.44
2022-10-19T08:19:13.382Z,102305.88
2022-10-19T08:20:16.145Z,102302.09
2022-10-19T08:21:18.023Z,102299.28
2022-10-19T08:22:20.633Z,102293.91
2022-10-19T08:23:22.993Z,102296.47
2022-10-19T08:24:25.647Z,102297.25
2022-10-19T08:25:27.193Z,102299.72
2022-10-19T08:26:30.853Z,102291.75
2022-10-19T08:27:33.499Z,102296.97
2022-10-19T08:28:36.483Z,102300.28
2022-10-19T08:29:38.162Z,102301.09
2022-10-19T08:30:40.789Z,102300.03
2022-10-19T08:31:43.970Z,102296.44
2022-10-19T08:32:47.882Z,102301.66
2022-10-19T08:33:50.284Z,102300.72
2022-10-19T08:34:53.160Z,102297.09
2022-10-19T08:35:54.736Z,102302.34
2022-10-19T08:36:57.208Z,102309.28
2022-10-19T08:38:02.622Z,102303.88
2022-10-19T08:39:07.699Z,102302.91
2022-10-19T08:40:17.962Z,102308.16
2022-10-19T08:41:26.449Z,102305.41
2022-10-19T08:42:34.494Z,102295.53
2022-10-19T08:43:43.042Z,102302.56
2022-10-19T08:45:00.254Z,102303.34
2022-10-19T08:46:12.650Z,102293.56
2022-10-19T08:47:24.730Z,102288.13
2022-10-19T08:48:32.960Z,102285.41
2022-10-19T08:49:36.120Z,102278.19
2022-10-19T08:50:39.815Z,102283.41
2022-10-19T08:51:45.481Z,102281.44
2022-10-19T08:52:54.857Z,102270.63
2022-10-19T08:54:01.132Z,102274.03
2022-10-19T08:55:08.925Z,102268.53
2022-10-19T08:56:45.819Z,102272.03
2022-10-19T08:57:52.699Z,102267.41
2022-10-19T08:59:09.361Z,102271.78
2022-10-19T09:00:18.112Z,102273.38
2022-10-19T09:01:35.402Z,102269.69
2022-10-19T09:02:58.035Z,102269.59
2022-10-19T09:04:05.521Z,102267.69
2022-10-19T09:05:17.179Z,102265.78
2022-10-19T09:06:27.441Z,102257.66
2022-10-19T09:07:31.087Z,102258.41
2022-10-19T09:08:37.875Z,102260.00
2022-10-19T09:09:43.667Z,102260.69
2022-10-19T09:10:49.817Z,102251.75
2022-10-19T09:11:56.388Z,102251.66
2022-10-19T09:13:01.325Z,102249.66
2022-10-19T09:14:11.730Z,102250.50
2022-10-19T09:15:18.771Z,102250.44
2022-10-19T09:16:21.208Z,102249.38
2022-10-19T09:17:25.143Z,102238.63
2022-10-19T09:18:29.694Z,102244.63
2022-10-19T09:19:34.631Z,102242.75
2022-10-19T09:20:40.248Z,102239.97
2022-10-19T09:21:47.786Z,102237.97
2022-10-19T09:23:01.017Z,102235.31
2022-10-19T09:24:06.982Z,102240.44
2022-10-19T09:25:14.482Z,102231.41
2022-10-19T09:26:19.216Z,102231.31
2022-10-19T09:27:23.902Z,102224.00
2022-10-19T09:28:40.384Z,102233.50
2022-10-19T09:29:47.702Z,102236.03
2022-10-19T09:30:52.317Z,102235.00
2022-10-19T09:33:04.445Z,102240.03
2022-10-19T09:34:12.972Z,102228.44
2022-10-19T09:35:29.166Z,102236.31
2022-10-19T09:36:50.145Z,102233.56
2022-10-19T09:37:54.241Z,102229.84
2022-10-19T09:38:55.884Z,102239.47
2022-10-19T09:39:58.461Z,102223.41
2022-10-19T09:41:18.483Z,102228.63
2022-10-19T09:42:24.770Z,102223.09
2022-10-19T09:43:28.189Z,102223.88
2022-10-19T09:44:30.807Z,102231.66
2022-10-19T09:45:39.861Z,102227.06
2022-10-19T09:46:51.913Z,102230.50
2022-10-19T09:47:54.555Z,102236.56
2022-10-19T09:49:01.289Z,102228.38
2022-10-19T09:50:14.987Z,102225.72
2022-10-19T09:51:19.406Z,102232.56
2022-10-19T09:52:37.037Z,102228.97
2022-10-19T09:53:45.560Z,102227.03
2022-10-19T09:54:51.890Z,102226.84
2022-10-19T09:56:00.196Z,102222.25
2022-10-19T09:57:03.899Z,102222.91
2022-10-19T09:58:17.966Z,102227.19
2022-10-19T09:59:22.554Z,102222.69
2022-10-19T10:00:31.819Z,102226.88
2022-10-19T10:01:40.110Z,102222.41
2022-10-19T10:02:51.150Z,102224.00
2022-10-19T10:03:55.866Z,102230.09
2022-10-19T10:05:05.388Z,102229.97
2022-10-19T10:06:10.961Z,102223.72
2022-10-19T10:07:17.383Z,102226.16
2022-10-19T10:08:22.560Z,102217.22
2022-10-19T10:09:27.921Z,102222.56
2022-10-19T10:10:36.872Z,102220.63
2022-10-19T10:11:41.060Z,102221.38
2022-10-19T10:12:43.610Z,102220.44
2022-10-19T10:13:50.685Z,102210.41
2022-10-19T10:14:53.935Z,102213.00
2022-10-19T10:15:58.479Z,102218.13
2022-10-19T10:17:08.420Z,102219.81
2022-10-19T10:18:15.382Z,102215.25
2022-10-19T10:19:18.937Z,102219.59
2022-10-19T10:20:27.826Z,102227.50
2022-10-19T10:21:34.457Z,102224.72
2022-10-19T10:22:37.775Z,102222.91
2022-10-19T10:23:40.488Z,102217.50
2022-10-19T10:24:54.551Z,102215.56
2022-10-19T10:26:04.779Z,102211.00
2022-10-19T10:27:06.449Z,102219.00
2022-10-19T10:28:20.138Z,102213.44
2022-10-19T10:29:24.484Z,102219.53
2022-10-19T10:30:29.137Z,102213.25
2022-10-19T10:31:31.837Z,102215.78
2022-10-19T10:32:37.622Z,102211.09
2022-10-19T10:33:44.730Z,102214.63
2022-10-19T10:34:59.974Z,102199.50
2022-10-19T10:36:05.281Z,102196.69
2022-10-19T10:37:13.416Z,102196.59
2022-10-19T10:38:19.885Z,102191.06
2022-10-19T10:39:24.689Z,102183.81
2022-10-19T10:40:29.937Z,102194.25
2022-10-19T10:41:39.323Z,102187.00
2022-10-19T10:42:44.746Z,102189.56
2022-10-19T10:43:57.510Z,102186.69
2022-10-19T10:45:01.874Z,102189.34
2022-10-19T10:46:07.350Z,102186.59
2022-10-19T10:47:15.684Z,102185.50
2022-10-19T10:48:27.969Z,102182.75
2022-10-19T10:49:35.429Z,102180.81
2022-10-19T10:50:38.208Z,102177.19
2022-10-19T10:51:50.568Z,102174.31
2022-10-19T10:53:01.444Z,102170.69
2022-10-19T10:54:15.923Z,102178.50
2022-10-19T10:55:22.452Z,102180.97
2022-10-19T10:56:27.815Z,102180.75
2022-10-19T10:57:33.249Z,102185.84
2022-10-19T10:58:41.044Z,102181.25
2022-10-19T10:59:55.858Z,102180.31
2022-10-19T11:01:05.318Z,102166.66
2022-10-19T11:02:19.559Z,102171.84
2022-10-19T11:03:26.979Z,102163.63
2022-10-19T11:04:34.802Z,102161.72
2022-10-19T11:05:41.872Z,102161.50
2022-10-19T11:06:48.901Z,102156.91
2022-10-19T11:07:55.339Z,102159.34
2022-10-19T11:09:06.626Z,102153.06
2022-10-19T11:10:20.968Z,102152.81
2022-10-19T11:11:27.811Z,102151.75
2022-10-19T11:12:38.232Z,102149.94
2022-10-19T11:13:48.113Z,102147.03
2022-10-19T11:14:54.910Z,102145.09
2022-10-19T11:16:03.489Z,102143.19
2022-10-19T11:17:07.596Z,102138.72
2022-10-19T11:18:18.787Z,102138.47
2022-10-19T11:19:24.257Z,102135.69
2022-10-19T11:20:30.423Z,102134.59
2022-10-19T11:21:38.783Z,102130.88
2022-10-19T11:22:48.863Z,102134.28
2022-10-19T11:23:59.503Z,102126.25
2022-10-19T11:25:30.925Z,102118.97
2022-10-19T11:26:47.344Z,102121.56
2022-10-19T11:28:00.160Z,102127.53
2022-10-19T11:29:18.903Z,102127.53
2022-10-19T11:30:23.041Z,102125.47
2022-10-19T11:31:36.241Z,102119.06
2022-10-19T11:32:48.743Z,102117.09
2022-10-19T11:34:00.629Z,102117.88
2022-10-19T11:35:26.030Z,102120.31
2022-10-19T11:36:43.201Z,102110.34
2022-10-19T11:38:17.553Z,102119.97
2022-10-19T11:39:36.794Z,102111.81
2022-10-19T11:41:06.049Z,102104.53
2022-10-19T11:42:16.869Z,102108.91
2022-10-19T11:43:30.855Z,102099.72
2022-10-19T11:44:46.750Z,102096.81
2022-10-19T11:45:54.985Z,102096.56
2022-10-19T11:47:13.400Z,102092.94
2022-10-19T11:48:40.333Z,102091.97
2022-10-19T11:49:59.503Z,102099.97
2022-10-19T11:51:17.301Z,102103.41
2022-10-19T11:52:31.886Z,102099.78
2022-10-19T11:53:41.784Z,102101.44
2022-10-19T11:54:59.023Z,102096.09
2022-10-19T11:56:09.954Z,102098.78
2022-10-19T11:57:16.034Z,102098.53
2022-10-19T11:58:45.262Z,102092.34
2022-10-19T12:00:13.512Z,102088.72
2022-10-19T12:01:33.889Z,102086.91
2022-10-19T12:03:03.669Z,102076.22
2022-10-19T12:04:39.472Z,102077.06
2022-10-19T12:05:55.207Z,102075.13
2022-10-19T12:07:10.909Z,102073.19
2022-10-19T12:08:30.278Z,102070.41
2022-10-19T12:09:44.291Z,102070.41
2022-10-19T12:10:58.180Z,102066.66
2022-10-19T12:12:21.022Z,102061.31
2022-10-19T12:13:30.760Z,102056.72
2022-10-19T12:14:38.572Z,102053.06
2022-10-19T12:15:44.839Z,102057.34
2022-10-19T12:16:50.104Z,102051.84
2022-10-19T12:17:55.159Z,102050.03
2022-10-19T12:19:01.432Z,102055.28
2022-10-19T12:20:08.478Z,102052.47
2022-10-19T12:21:15.337Z,102041.78
2022-10-19T12:22:22.519Z,102045.91
2022-10-19T12:23:31.092Z,102042.16
2022-10-19T12:24:35.373Z,102037.53
2022-10-19T12:25:41.293Z,102029.41
2022-10-19T12:26:45.789Z,102032.78
2022-10-19T12:27:51.516Z,102030.88
2022-10-19T12:28:57.881Z,102034.25
2022-10-19T12:30:05.684Z,102028.66
2022-10-19T12:31:10.518Z,102033.78
2022-10-19T12:32:16.470Z,102029.16
2022-10-19T12:33:24.258Z,102024.78
2022-10-19T12:34:37.415Z,102026.25
2022-10-19T12:35:56.658Z,102022.81
2022-10-19T12:37:06.946Z,102019.19
2022-10-19T12:38:15.733Z,102015.56